Time;durP1;ratioP1;P1;durP2;ratioP2;P2;SDS_P1;SDS_P2;PMS_P1;PMS_P2;Temp;Humidity;BMP_temperature;BMP_pressure;BME280_temperature;BME280_humidity;BME280_pressure;Samples;Min_cycle;Max_cycle;Signal;HPM_P1;HPM_P2
2023/06/28 00:00:06;;;;;;;1.30;1.20;;;15.60;94.90;;;;;;5073442;28;20287;-70
2023/06/28 00:02:35;;;;;;;0.97;0.83;;;15.60;94.50;;;;;;5073151;28;20548;-73
2023/06/28 00:05:04;;;;;;;1.23;1.13;;;15.60;94.40;;;;;;5073820;28;20947;-72
2023/06/28 00:07:31;;;;;;;1.10;1.10;;;15.50;93.90;;;;;;5073409;28;20410;-72
2023/06/28 00:09:57;;;;;;;0.67;0.67;;;15.50;93.40;;;;;;5073264;28;20757;-70
2023/06/28 00:12:23;;;;;;;0.60;0.50;;;15.50;93.50;;;;;;5073167;28;20899;-72
2023/06/28 00:14:49;;;;;;;4.47;0.87;;;15.60;93.70;;;;;;5073485;28;20417;-72
2023/06/28 00:17:15;;;;;;;1.07;0.60;;;15.60;93.50;;;;;;5072692;28;20465;-71
2023/06/28 00:19:47;;;;;;;0.77;0.77;;;15.60;93.60;;;;;;5073185;28;20216;-71
2023/06/28 00:22:16;;;;;;;0.87;0.87;;;15.70;93.60;;;;;;5073105;28;20416;-71
2023/06/28 00:24:41;;;;;;;1.30;1.20;;;15.70;93.40;;;;;;5073285;28;20800;-70
2023/06/28 00:27:07;;;;;;;0.50;0.50;;;15.70;93.40;;;;;;5073354;28;20412;-72
2023/06/28 00:29:32;;;;;;;1.47;1.37;;;15.70;93.40;;;;;;5073060;28;20181;-70
2023/06/28 00:31:58;;;;;;;0.97;0.90;;;15.70;93.30;;;;;;5072975;28;20166;-70
2023/06/28 00:34:24;;;;;;;1.30;1.20;;;15.60;93.30;;;;;;5073154;28;20184;-72
2023/06/28 00:36:49;;;;;;;0.87;0.73;;;15.70;93.50;;;;;;5073199;28;20166;-73
2023/06/28 00:39:15;;;;;;;1.33;1.23;;;15.70;93.50;;;;;;5072970;28;20219;-71
2023/06/28 00:41:41;;;;;;;1.20;1.17;;;15.70;93.80;;;;;;5072947;28;20178;-71
2023/06/28 00:44:06;;;;;;;2.77;1.07;;;15.70;93.80;;;;;;5073123;28;20196;-71
2023/06/28 00:46:34;;;;;;;1.50;1.40;;;15.60;93.60;;;;;;5073128;28;20178;-70
2023/06/28 00:48:59;;;;;;;0.90;0.90;;;15.50;94.20;;;;;;5072911;28;20188;-71
2023/06/28 00:51:27;;;;;;;0.57;0.57;;;15.40;94.50;;;;;;5072717;28;20518;-72
2023/06/28 00:53:53;;;;;;;0.97;0.83;;;15.40;94.10;;;;;;5072883;28;20172;-72
2023/06/28 00:56:19;;;;;;;1.80;0.70;;;15.30;94.50;;;;;;5073072;28;20452;-71
2023/06/28 00:58:44;;;;;;;1.10;0.90;;;15.20;94.80;;;;;;5072972;28;20196;-70
2023/06/28 01:01:10;;;;;;;1.17;0.60;;;15.10;94.90;;;;;;5072855;28;20218;-71
2023/06/28 01:03:36;;;;;;;0.73;0.73;;;15.00;95.00;;;;;;5072803;28;20201;-70
2023/06/28 01:06:02;;;;;;;0.40;0.40;;;14.90;95.10;;;;;;5072897;28;20168;-72
2023/06/28 01:08:28;;;;;;;0.90;0.60;;;14.80;95.30;;;;;;5072749;28;20196;-71
2023/06/28 01:10:55;;;;;;;0.83;0.83;;;14.80;95.40;;;;;;5072736;28;20415;-72
2023/06/28 01:13:22;;;;;;;0.90;0.90;;;14.90;94.90;;;;;;5072872;28;20499;-72
2023/06/28 01:15:47;;;;;;;1.03;1.03;;;14.90;94.90;;;;;;5072929;28;20730;-70
2023/06/28 01:18:14;;;;;;;1.47;0.60;;;14.80;99.90;;;;;;5072694;28;20423;-72
2023/06/28 01:20:40;;;;;;;0.60;0.60;;;14.60;94.90;;;;;;5072957;28;20169;-71
2023/06/28 01:23:06;;;;;;;0.80;0.70;;;14.50;95.80;;;;;;5072444;28;20455;-71
2023/06/28 01:25:31;;;;;;;2.43;0.90;;;14.50;95.80;;;;;;5072869;28;20172;-72
2023/06/28 01:27:58;;;;;;;0.50;0.50;;;14.50;95.90;;;;;;5073520;28;20162;-73
2023/06/28 01:30:25;;;;;;;4.87;2.80;;;14.40;96.40;;;;;;5076122;28;20189;-70
2023/06/28 01:32:51;;;;;;;1.03;1.03;;;14.30;96.00;;;;;;5076028;28;20481;-69
2023/06/28 01:35:17;;;;;;;0.50;0.50;;;14.30;96.00;;;;;;5076336;28;20438;-70
2023/06/28 01:37:43;;;;;;;1.50;1.40;;;14.20;96.20;;;;;;5076200;28;20625;-72
2023/06/28 01:40:11;;;;;;;0.60;0.60;;;14.20;95.90;;;;;;5075910;28;20200;-71
2023/06/28 01:42:38;;;;;;;0.53;0.53;;;14.10;96.00;;;;;;5075653;28;20458;-70
2023/06/28 01:45:04;;;;;;;1.00;1.00;;;13.90;95.60;;;;;;5075958;28;20490;-72
2023/06/28 01:47:31;;;;;;;0.80;0.60;;;13.90;95.80;;;;;;5075904;28;20758;-72
2023/06/28 01:49:58;;;;;;;3.37;1.53;;;13.90;96.00;;;;;;5075630;28;21001;-71
2023/06/28 01:52:24;;;;;;;1.27;1.17;;;14.10;95.70;;;;;;5075674;28;20411;-72
2023/06/28 01:54:49;;;;;;;1.03;1.03;;;14.30;95.60;;;;;;5075844;28;20407;-70
2023/06/28 01:57:15;;;;;;;1.17;1.13;;;14.30;96.00;;;;;;5075667;28;20501;-71
2023/06/28 01:59:41;;;;;;;0.93;0.80;;;14.20;95.90;;;;;;5075570;28;20618;-69
2023/06/28 02:02:07;;;;;;;0.60;0.60;;;14.20;96.00;;;;;;5075351;28;20493;-72
2023/06/28 02:04:32;;;;;;;0.60;0.60;;;14.20;96.20;;;;;;5075705;28;20240;-69
2023/06/28 02:06:58;;;;;;;1.07;1.07;;;14.10;96.10;;;;;;5075662;28;20162;-71
2023/06/28 02:09:23;;;;;;;0.80;0.80;;;14.10;95.70;;;;;;5075368;28;20186;-72
2023/06/28 02:11:49;;;;;;;2.07;1.77;;;14.10;95.00;;;;;;5075237;28;20537;-72
2023/06/28 02:14:14;;;;;;;0.60;0.60;;;14.10;95.10;;;;;;5075387;28;20180;-71
2023/06/28 02:16:42;;;;;;;1.27;1.17;;;14.10;95.30;;;;;;5075365;28;20254;-72
2023/06/28 02:19:12;;;;;;;0.97;0.83;;;14.20;95.70;;;;;;5075248;28;20189;-72
2023/06/28 02:21:41;;;;;;;0.70;0.70;;;14.20;95.50;;;;;;5075240;28;20473;-71
2023/06/28 02:24:08;;;;;;;0.60;0.60;;;14.30;95.90;;;;;;5075050;28;20435;-72
2023/06/28 02:26:35;;;;;;;0.40;0.40;;;14.40;95.50;;;;;;5075149;28;20957;-70
2023/06/28 02:29:00;;;;;;;1.60;0.60;;;14.40;95.50;;;;;;5075164;28;20790;-71
2023/06/28 02:31:26;;;;;;;1.17;0.77;;;14.40;95.30;;;;;;5074911;28;20404;-71
2023/06/28 02:33:51;;;;;;;2.20;2.10;;;14.40;95.50;;;;;;5075104;28;20174;-70
2023/06/28 02:36:17;;;;;;;2.07;0.70;;;14.30;95.90;;;;;;5075077;28;20191;-70
2023/06/28 02:38:43;;;;;;;0.50;0.50;;;14.30;96.10;;;;;;5074431;28;20653;-69
2023/06/28 02:41:09;;;;;;;1.13;1.13;;;14.20;95.90;;;;;;5074671;28;20210;-71
2023/06/28 02:43:35;;;;;;;1.20;1.10;;;14.10;95.70;;;;;;5074891;28;20201;-71
2023/06/28 02:46:01;;;;;;;0.80;0.77;;;14.10;96.00;;;;;;5074923;28;20419;-70
2023/06/28 02:48:26;;;;;;;1.93;1.50;;;14.10;95.80;;;;;;5074613;28;20193;-72
2023/06/28 02:50:52;;;;;;;0.83;0.83;;;14.10;95.80;;;;;;5074518;28;20252;-70
2023/06/28 02:53:17;;;;;;;0.93;0.90;;;14.20;95.90;;;;;;5074539;28;20215;-69
2023/06/28 02:55:43;;;;;;;0.70;0.70;;;14.30;95.20;;;;;;5074548;28;20661;-70
2023/06/28 02:58:09;;;;;;;1.63;1.30;;;14.20;99.90;;;;;;5074446;28;20175;-71
2023/06/28 03:00:37;;;;;;;1.27;1.23;;;14.30;95.50;;;;;;5074400;28;20178;-69
2023/06/28 03:03:03;;;;;;;0.70;0.70;;;14.40;95.60;;;;;;5074244;28;20193;-71
2023/06/28 03:05:29;;;;;;;1.60;1.50;;;14.40;95.40;;;;;;5074541;28;20438;-70
2023/06/28 03:07:54;;;;;;;1.07;1.00;;;14.50;95.50;;;;;;5074376;28;20459;-72
2023/06/28 03:10:20;;;;;;;2.73;1.63;;;14.60;95.20;;;;;;5074135;28;20288;-70
2023/06/28 03:12:46;;;;;;;0.73;0.73;;;14.50;95.20;;;;;;5074069;28;20580;-70
2023/06/28 03:15:11;;;;;;;0.60;0.60;;;14.50;95.10;;;;;;5074488;28;20208;-72
2023/06/28 03:17:37;;;;;;;1.10;0.67;;;14.50;95.20;;;;;;5074242;28;20563;-71
2023/06/28 03:20:04;;;;;;;1.73;1.63;;;14.40;95.10;;;;;;5073973;28;20242;-70
2023/06/28 03:22:29;;;;;;;1.63;1.20;;;14.40;95.30;;;;;;5073434;28;20221;-73
2023/06/28 03:24:55;;;;;;;1.13;1.13;;;14.40;95.60;;;;;;5073890;28;20455;-71
2023/06/28 03:27:20;;;;;;;0.70;0.70;;;14.60;95.40;;;;;;5073916;28;20532;-72
2023/06/28 03:29:46;;;;;;;2.43;1.47;;;14.70;95.30;;;;;;5073995;28;20213;-70
2023/06/28 03:32:12;;;;;;;1.07;1.07;;;14.70;95.70;;;;;;5073662;28;20629;-70
2023/06/28 03:34:37;;;;;;;0.60;0.60;;;14.70;95.40;;;;;;5074045;28;20165;-72
2023/06/28 03:37:03;;;;;;;0.93;0.87;;;14.60;95.30;;;;;;5074099;28;20161;-70
2023/06/28 03:39:29;;;;;;;0.83;0.50;;;14.60;95.60;;;;;;5073870;28;20232;-70
2023/06/28 03:41:54;;;;;;;0.40;0.40;;;14.60;96.10;;;;;;5073535;28;20495;-71
2023/06/28 03:44:20;;;;;;;2.00;1.90;;;14.60;95.80;;;;;;5073531;28;20205;-73
2023/06/28 03:46:46;;;;;;;0.73;0.50;;;14.60;95.60;;;;;;5073703;28;20169;-71
2023/06/28 03:49:12;;;;;;;0.93;0.80;;;;;;;;;;5073696;28;20231;-71
2023/06/28 03:51:37;;;;;;;0.50;0.50;;;14.70;95.70;;;;;;5072503;28;20209;-71
2023/06/28 03:54:03;;;;;;;1.03;0.60;;;14.70;96.20;;;;;;5073718;28;20418;-73
2023/06/28 03:56:29;;;;;;;0.73;0.73;;;14.70;96.10;;;;;;5073587;28;20175;-71
2023/06/28 03:58:55;;;;;;;0.37;0.37;;;14.70;96.00;;;;;;5073635;28;20292;-72
2023/06/28 04:01:21;;;;;;;0.90;0.90;;;14.80;96.30;;;;;;5073356;28;20173;-69
2023/06/28 04:03:46;;;;;;;0.40;0.40;;;14.80;96.10;;;;;;5073540;28;21001;-71
2023/06/28 04:06:12;;;;;;;1.43;0.97;;;14.80;96.20;;;;;;5073452;28;20252;-71
2023/06/28 04:08:38;;;;;;;0.60;0.60;;;14.80;96.40;;;;;;5073279;28;20188;-70
2023/06/28 04:11:03;;;;;;;0.70;0.70;;;14.80;96.60;;;;;;5073286;28;20538;-70
2023/06/28 04:13:29;;;;;;;3.00;1.10;;;14.90;96.80;;;;;;5073575;28;20165;-71
2023/06/28 04:15:55;;;;;;;0.70;0.70;;;14.80;96.70;;;;;;5073247;28;20205;-70
2023/06/28 04:18:20;;;;;;;0.97;0.97;;;14.80;99.90;;;;;;5073194;28;20171;-72
2023/06/28 04:20:46;;;;;;;1.03;1.03;;;14.80;96.70;;;;;;5073202;28;20405;-72
2023/06/28 04:23:12;;;;;;;0.97;0.97;;;14.80;96.50;;;;;;5073026;28;20292;-71
2023/06/28 04:25:37;;;;;;;1.47;1.37;;;14.80;96.40;;;;;;5073207;28;20219;-71
2023/06/28 04:28:04;;;;;;;2.53;2.33;;;15.10;99.30;;;;;;5073209;28;20165;-72
2023/06/28 04:30:31;;;;;;;0.40;0.40;;;14.90;96.80;;;;;;5073085;28;20239;-70
2023/06/28 04:32:57;;;;;;;1.80;1.70;;;15.00;97.10;;;;;;5072897;28;20419;-70
2023/06/28 04:35:23;;;;;;;0.60;0.50;;;15.00;96.90;;;;;;5073429;28;20895;-72
2023/06/28 04:37:50;;;;;;;1.10;1.00;;;15.10;96.30;;;;;;5073136;28;20176;-71
2023/06/28 04:40:16;;;;;;;1.00;1.00;;;15.10;96.20;;;;;;5072959;28;20516;-71
2023/06/28 04:42:42;;;;;;;0.47;0.47;;;15.20;96.50;;;;;;5072847;28;20454;-71
2023/06/28 04:45:09;;;;;;;0.80;0.80;;;15.20;96.20;;;;;;5073115;28;20406;-72
2023/06/28 04:47:36;;;;;;;0.47;0.47;;;15.20;96.50;;;;;;5073082;28;20195;-72
2023/06/28 04:50:02;;;;;;;0.53;0.53;;;15.20;96.30;;;;;;5072788;28;20938;-72
2023/06/28 04:52:28;;;;;;;0.57;0.57;;;15.20;96.40;;;;;;5072743;28;20430;-71
2023/06/28 04:54:54;;;;;;;1.40;1.30;;;15.20;96.50;;;;;;5072978;28;20404;-71
2023/06/28 04:57:22;;;;;;;0.57;0.50;;;15.20;97.10;;;;;;5073030;28;20200;-72
2023/06/28 04:59:48;;;;;;;2.30;1.73;;;15.20;97.00;;;;;;5072944;28;20190;-71
2023/06/28 05:02:14;;;;;;;0.97;0.97;;;15.30;96.90;;;;;;5073853;28;20408;-72
2023/06/28 05:04:41;;;;;;;0.57;0.57;;;15.40;96.70;;;;;;5076677;28;20173;-72
2023/06/28 05:07:09;;;;;;;0.70;0.70;;;15.50;96.90;;;;;;5076657;28;20445;-72
2023/06/28 05:09:35;;;;;;;1.43;1.33;;;15.60;96.80;;;;;;5076404;28;20907;-72
2023/06/28 05:12:02;;;;;;;0.40;0.40;;;15.70;96.80;;;;;;5075059;28;20981;-72
2023/06/28 05:14:29;;;;;;;2.93;0.87;;;15.80;96.70;;;;;;5076468;28;20410;-72
2023/06/28 05:16:55;;;;;;;0.80;0.80;;;15.80;96.40;;;;;;5076577;28;20404;-70
2023/06/28 05:19:22;;;;;;;1.10;1.00;;;15.80;96.10;;;;;;5076258;28;20432;-72
2023/06/28 05:21:48;;;;;;;1.37;0.70;;;15.80;96.10;;;;;;5076100;28;20443;-72
2023/06/28 05:24:16;;;;;;;1.30;1.20;;;15.80;96.00;;;;;;5076589;28;20451;-72
2023/06/28 05:26:42;;;;;;;1.60;1.50;;;15.80;95.90;;;;;;5076318;28;20406;-72
2023/06/28 05:29:07;;;;;;;1.07;0.77;;;15.90;96.30;;;;;;5076519;28;20423;-71
2023/06/28 05:31:34;;;;;;;0.90;0.90;;;15.90;96.50;;;;;;5076083;28;20428;-72
2023/06/28 05:34:00;;;;;;;0.70;0.47;;;15.90;96.90;;;;;;5076143;28;20170;-71
2023/06/28 05:36:26;;;;;;;0.83;0.83;;;15.90;96.70;;;;;;5076154;28;20429;-72
2023/06/28 05:38:52;;;;;;;0.67;0.67;;;16.00;96.40;;;;;;5075989;28;20192;-70
2023/06/28 05:41:18;;;;;;;1.33;1.23;;;16.00;96.70;;;;;;5075782;28;20529;-72
2023/06/28 05:43:45;;;;;;;3.77;1.47;;;16.00;96.80;;;;;;5076034;28;20453;-72
2023/06/28 05:46:11;;;;;;;1.70;1.60;;;15.90;96.50;;;;;;5075925;28;20166;-69
2023/06/28 05:48:36;;;;;;;0.67;0.67;;;15.90;96.30;;;;;;5075834;28;20428;-71
2023/06/28 05:51:02;;;;;;;2.30;1.03;;;15.90;96.40;;;;;;5075548;28;20445;-73
2023/06/28 05:53:29;;;;;;;2.00;1.87;;;15.90;96.90;;;;;;5075904;28;20572;-70
2023/06/28 05:55:55;;;;;;;0.67;0.60;;;15.90;96.80;;;;;;5075918;28;20601;-72
2023/06/28 05:58:22;;;;;;;0.50;0.50;;;16.20;99.90;;;;;;5075503;28;20414;-70
2023/06/28 06:00:47;;;;;;;1.53;0.90;;;15.90;96.40;;;;;;5075671;28;20880;-71
2023/06/28 06:03:13;;;;;;;1.60;0.67;;;15.90;96.50;;;;;;5075417;28;20510;-72
2023/06/28 06:05:39;;;;;;;10.03;1.23;;;15.80;96.70;;;;;;5075675;28;20257;-70
2023/06/28 06:08:05;;;;;;;0.60;0.60;;;16.00;99.90;;;;;;5075374;28;20408;-73
2023/06/28 06:10:31;;;;;;;2.23;0.87;;;15.80;96.30;;;;;;5075300;28;20426;-71
2023/06/28 06:12:57;;;;;;;0.90;0.90;;;15.90;96.70;;;;;;5074983;28;20403;-71
2023/06/28 06:15:23;;;;;;;0.80;0.80;;;15.90;97.30;;;;;;5074780;28;20656;-71
2023/06/28 06:17:50;;;;;;;2.20;1.00;;;16.00;97.10;;;;;;5075496;28;20247;-72
2023/06/28 06:20:16;;;;;;;1.33;1.27;;;16.10;97.10;;;;;;5075202;28;20795;-71
2023/06/28 06:22:45;;;;;;;0.70;0.67;;;16.10;96.80;;;;;;5074964;28;20443;-72
2023/06/28 06:25:10;;;;;;;4.77;1.53;;;16.10;96.80;;;;;;5075045;28;20427;-72
2023/06/28 06:27:36;;;;;;;0.53;0.53;;;16.20;96.80;;;;;;5075075;28;20876;-70
2023/06/28 06:30:03;;;;;;;1.07;0.80;;;16.20;96.50;;;;;;5075003;28;20450;-72
2023/06/28 06:32:29;;;;;;;1.53;1.43;;;16.30;96.40;;;;;;5074798;28;20408;-72
2023/06/28 06:34:58;;;;;;;1.57;0.70;;;16.40;96.10;;;;;;5075107;28;20525;-70
2023/06/28 06:37:24;;;;;;;1.70;1.17;;;16.50;95.70;;;;;;5074975;28;20172;-71
2023/06/28 06:39:50;;;;;;;0.80;0.80;;;16.60;96.10;;;;;;5074941;28;20436;-70
2023/06/28 06:42:16;;;;;;;1.20;1.20;;;16.80;95.30;;;;;;5074548;28;20438;-72
2023/06/28 06:44:41;;;;;;;1.70;1.33;;;16.90;95.30;;;;;;5074953;28;20522;-72
2023/06/28 06:47:07;;;;;;;0.97;0.97;;;17.00;94.60;;;;;;5074835;28;20409;-71
2023/06/28 06:49:33;;;;;;;0.60;0.60;;;17.10;94.40;;;;;;5074666;28;20734;-71
2023/06/28 06:51:59;;;;;;;0.80;0.80;;;17.10;94.80;;;;;;5074442;28;20173;-70
2023/06/28 06:54:25;;;;;;;0.50;0.50;;;17.20;95.10;;;;;;5074680;28;20177;-70
2023/06/28 06:56:51;;;;;;;2.13;1.30;;;17.20;95.60;;;;;;5074695;28;20408;-72
2023/06/28 06:59:23;;;;;;;0.97;0.80;;;17.20;94.20;;;;;;5074503;28;20190;-72
2023/06/28 07:01:52;;;;;;;3.03;1.13;;;17.40;93.70;;;;;;5074306;28;20409;-72
2023/06/28 07:04:18;;;;;;;0.83;0.83;;;17.60;93.20;;;;;;5074495;28;20455;-71
2023/06/28 07:06:46;;;;;;;0.83;0.83;;;17.70;93.20;;;;;;5074447;28;20547;-72
2023/06/28 07:09:14;;;;;;;0.50;0.50;;;17.80;93.80;;;;;;5074181;28;20428;-73
2023/06/28 07:11:40;;;;;;;0.90;0.90;;;18.00;93.40;;;;;;5074097;28;20402;-72
2023/06/28 07:14:06;;;;;;;1.27;0.90;;;18.00;93.30;;;;;;5072965;28;20409;-71
2023/06/28 07:16:31;;;;;;;2.90;1.33;;;18.20;93.30;;;;;;5074083;28;21021;-71
2023/06/28 07:18:57;;;;;;;1.00;1.00;;;18.30;91.40;;;;;;5074149;28;20181;-71
2023/06/28 07:21:23;;;;;;;3.47;1.23;;;18.40;92.00;;;;;;5073790;28;20173;-72
2023/06/28 07:23:48;;;;;;;4.83;1.00;;;18.40;91.40;;;;;;5073962;28;20205;-72
2023/06/28 07:26:14;;;;;;;0.47;0.47;;;18.40;91.80;;;;;;5073955;28;20541;-70
2023/06/28 07:28:41;;;;;;;0.50;0.50;;;18.30;92.10;;;;;;5073940;28;20663;-71
2023/06/28 07:31:06;;;;;;;0.70;0.70;;;18.40;93.10;;;;;;5073766;28;20170;-71
2023/06/28 07:33:32;;;;;;;0.57;0.57;;;18.40;92.20;;;;;;5073919;28;20412;-71
2023/06/28 07:35:58;;;;;;;1.70;1.60;;;18.50;91.40;;;;;;5073839;28;20183;-71
2023/06/28 07:38:23;;;;;;;1.03;0.93;;;18.50;99.90;;;;;;5073693;28;20210;-71
2023/06/28 07:40:49;;;;;;;1.00;0.80;;;18.60;91.40;;;;;;5073673;28;20175;-71
2023/06/28 07:43:17;;;;;;;0.43;0.43;;;18.60;91.30;;;;;;5073535;28;20189;-73
2023/06/28 07:45:42;;;;;;;0.70;0.70;;;18.60;92.60;;;;;;5073631;28;20411;-73
2023/06/28 07:48:08;;;;;;;2.70;1.27;;;18.40;99.90;;;;;;5073696;28;20409;-73
2023/06/28 07:50:35;;;;;;;3.03;1.20;;;18.60;93.40;;;;;;5073428;28;20795;-71
2023/06/28 07:53:02;;;;;;;0.67;0.67;;;18.70;93.80;;;;;;5073583;28;20439;-73
2023/06/28 07:55:28;;;;;;;0.50;0.50;;;18.90;93.70;;;;;;5073573;28;20427;-72
2023/06/28 07:57:57;;;;;;;0.80;0.60;;;19.10;92.60;;;;;;5073733;28;20450;-72
2023/06/28 08:00:25;;;;;;;1.10;1.00;;;19.40;92.00;;;;;;5073406;28;20223;-73
2023/06/28 08:02:50;;;;;;;1.80;1.20;;;19.70;91.40;;;;;;5073468;28;20463;-73
2023/06/28 08:05:16;;;;;;;1.03;0.77;;;20.00;90.50;;;;;;5073589;28;20762;-72
2023/06/28 08:07:42;;;;;;;0.97;0.63;;;20.20;90.70;;;;;;5073406;28;20714;-71
2023/06/28 08:10:08;;;;;;;0.93;0.67;;;20.40;85.50;;;;;;5073325;28;20206;-72
2023/06/28 08:12:33;;;;;;;2.13;1.17;;;20.50;81.80;;;;;;5073315;28;20175;-72
2023/06/28 08:14:59;;;;;;;0.60;0.60;;;20.70;79.80;;;;;;5073617;28;20421;-72
2023/06/28 08:17:25;;;;;;;0.80;0.80;;;21.00;79.80;;;;;;5073307;28;20169;-73
2023/06/28 08:19:50;;;;;;;0.50;0.50;;;21.20;78.30;;;;;;5073449;28;20548;-73
2023/06/28 08:22:16;;;;;;;1.17;0.80;;;21.50;75.50;;;;;;5073012;28;20164;-72
2023/06/28 08:24:42;;;;;;;0.50;0.50;;;21.80;79.30;;;;;;5073256;28;20626;-74
2023/06/28 08:27:07;;;;;;;0.70;0.70;;;22.10;78.50;;;;;;5073286;28;20575;-71
2023/06/28 08:29:33;;;;;;;0.97;0.97;;;22.20;69.50;;;;;;5073254;28;20308;-73
2023/06/28 08:31:59;;;;;;;1.17;1.10;;;22.30;69.20;;;;;;5072970;28;20173;-71
2023/06/28 08:34:24;;;;;;;0.60;0.60;;;22.60;68.20;;;;;;5073206;28;20181;-72
2023/06/28 08:36:50;;;;;;;1.03;0.57;;;23.00;71.10;;;;;;5074044;28;20582;-71
2023/06/28 08:39:16;;;;;;;1.70;1.03;;;23.70;66.40;;;;;;5077208;28;20238;-73
2023/06/28 08:41:43;;;;;;;0.83;0.80;;;24.50;60.20;;;;;;5076967;28;20169;-73
2023/06/28 08:44:12;;;;;;;0.70;0.70;;;25.80;58.60;;;;;;5077560;28;20495;-73
2023/06/28 08:46:41;;;;;;;0.57;0.57;;;27.10;58.40;;;;;;5077318;28;20482;-71
2023/06/28 08:49:07;;;;;;;0.70;0.70;;;28.00;56.80;;;;;;5077994;28;20428;-72
2023/06/28 08:51:33;;;;;;;0.60;0.60;;;28.50;49.90;;;;;;5076670;28;20796;-73
2023/06/28 08:53:59;;;;;;;0.67;0.60;;;28.70;50.80;;;;;;5076942;28;20506;-73
2023/06/28 08:56:27;;;;;;;0.90;0.70;;;28.80;48.60;;;;;;5076927;28;20499;-72
2023/06/28 08:58:54;;;;;;;1.10;0.70;;;28.80;47.80;;;;;;5076903;28;20193;-73
2023/06/28 09:01:22;;;;;;;0.50;0.50;;;28.90;48.20;;;;;;5076536;28;20403;-72
2023/06/28 09:03:48;;;;;;;0.93;0.60;;;29.30;46.40;;;;;;5076644;28;20814;-74
2023/06/28 09:06:14;;;;;;;1.37;0.60;;;29.40;45.60;;;;;;5076726;28;20412;-72
2023/06/28 09:08:43;;;;;;;3.17;0.50;;;29.30;46.40;;;;;;5076573;28;20989;-70
2023/06/28 09:11:08;;;;;;;0.60;0.60;;;29.60;45.30;;;;;;5076484;28;20786;-71
2023/06/28 09:13:34;;;;;;;0.97;0.80;;;29.30;44.10;;;;;;5076622;28;20407;-69
2023/06/28 09:16:01;;;;;;;0.80;0.80;;;29.20;45.40;;;;;;5076600;28;20177;-69
2023/06/28 09:18:26;;;;;;;1.00;0.40;;;28.50;44.90;;;;;;5076350;28;20459;-71
2023/06/28 09:20:54;;;;;;;4.53;1.13;;;28.60;50.10;;;;;;5076636;28;20450;-71
2023/06/28 09:23:24;;;;;;;1.73;0.90;;;29.30;44.90;;;;;;5076209;28;20197;-71
2023/06/28 09:25:50;;;;;;;1.20;1.00;;;29.40;44.80;;;;;;5076321;28;20473;-68
2023/06/28 09:28:16;;;;;;;1.00;0.80;;;29.90;55.20;;;;;;5076384;28;20792;-69
2023/06/28 09:30:42;;;;;;;0.80;0.67;;;29.90;45.10;;;;;;5076149;28;20416;-71
2023/06/28 09:33:08;;;;;;;0.50;0.50;;;29.90;42.80;;;;;;5076031;28;20476;-71
2023/06/28 09:35:36;;;;;;;1.83;1.73;;;29.90;45.40;;;;;;5076322;28;20181;-69
2023/06/28 09:38:07;;;;;;;0.67;0.67;;;29.80;44.80;;;;;;5076460;28;20170;-71
2023/06/28 09:40:34;;;;;;;0.77;0.77;;;29.80;45.50;;;;;;5076178;28;20400;-71
2023/06/28 09:43:00;;;;;;;0.60;0.60;;;29.70;44.50;;;;;;5075842;28;20447;-69
2023/06/28 09:45:26;;;;;;;0.70;0.70;;;29.40;44.40;;;;;;5075944;28;20404;-69
2023/06/28 09:48:00;;;;;;;0.87;0.63;;;28.40;45.10;;;;;;5075653;28;20166;-69
2023/06/28 09:50:36;;;;;;;0.97;0.50;;;27.90;46.80;;;;;;5075112;28;20985;-69
2023/06/28 09:53:05;;;;;;;0.57;0.57;;;28.00;47.30;;;;;;5075621;28;20403;-71
2023/06/28 09:55:31;;;;;;;0.70;0.67;;;27.90;45.40;;;;;;5075910;28;20437;-69
2023/06/28 09:57:57;;;;;;;0.60;0.60;;;27.60;46.60;;;;;;5075716;28;20404;-71
2023/06/28 10:00:25;;;;;;;0.73;0.73;;;27.40;47.50;;;;;;5075566;28;20653;-69
2023/06/28 10:02:52;;;;;;;0.67;0.50;;;27.00;47.10;;;;;;5075489;28;20451;-70
2023/06/28 10:05:18;;;;;;;0.70;0.70;;;26.00;47.50;;;;;;5075711;28;20450;-69
2023/06/28 10:07:45;;;;;;;0.63;0.63;;;25.60;50.00;;;;;;5075658;28;20460;-69
2023/06/28 10:10:11;;;;;;;0.70;0.57;;;25.30;49.70;;;;;;5075341;28;20649;-71
2023/06/28 10:12:37;;;;;;;2.93;0.70;;;25.30;52.00;;;;;;5075364;28;20387;-69
2023/06/28 10:15:10;;;;;;;0.83;0.50;;;25.40;51.40;;;;;;5075423;28;20873;-71
2023/06/28 10:17:37;;;;;;;0.60;0.60;;;25.50;50.00;;;;;;5075484;28;20488;-71
2023/06/28 10:20:05;;;;;;;0.97;0.60;;;25.60;50.40;;;;;;5075182;28;20439;-71
2023/06/28 10:22:32;;;;;;;0.60;0.60;;;25.80;53.10;;;;;;5075005;28;20404;-71
2023/06/28 10:24:59;;;;;;;0.77;0.77;;;25.80;51.70;;;;;;5075674;28;20442;-68
2023/06/28 10:27:25;;;;;;;0.40;0.40;;;25.90;51.60;;;;;;5075179;28;20839;-71
2023/06/28 10:29:52;;;;;;;3.10;1.37;;;25.90;50.80;;;;;;5075135;28;20510;-70
2023/06/28 10:32:18;;;;;;;1.80;0.60;;;25.70;50.20;;;;;;5074956;28;20173;-71
2023/06/28 10:34:47;;;;;;;2.93;1.27;;;25.70;50.30;;;;;;5075208;28;20495;-70
2023/06/28 10:37:13;;;;;;;0.83;0.83;;;25.90;50.30;;;;;;5075022;28;20432;-71
2023/06/28 10:39:39;;;;;;;0.47;0.47;;;25.90;52.80;;;;;;5074816;28;20435;-69
2023/06/28 10:42:06;;;;;;;0.70;0.70;;;26.10;51.90;;;;;;5074752;28;20199;-71
2023/06/28 10:44:32;;;;;;;0.60;0.50;;;26.00;49.70;;;;;;5074801;28;20425;-69
2023/06/28 10:47:11;;;;;;;1.50;1.00;;;26.10;51.50;;;;;;5074881;28;20759;-70
2023/06/28 10:49:40;;;;;;;0.53;0.53;;;26.60;53.10;;;;;;5074685;28;20196;-71
2023/06/28 10:52:13;;;;;;;0.67;0.67;;;26.50;52.00;;;;;;5074627;28;20435;-69
2023/06/28 10:54:39;;;;;;;1.13;0.60;;;26.70;53.40;;;;;;5075052;28;20457;-71
2023/06/28 10:57:10;;;;;;;0.60;0.57;;;26.80;50.40;;;;;;5074935;28;20896;-71
2023/06/28 10:59:39;;;;;;;2.30;0.87;;;27.10;52.00;;;;;;5074125;28;20653;-71
2023/06/28 11:02:05;;;;;;;0.90;0.90;;;27.30;50.60;;;;;;5074250;28;20412;-71
2023/06/28 11:04:31;;;;;;;0.60;0.60;;;27.20;49.50;;;;;;5074965;28;20459;-70
2023/06/28 11:07:30;;;;;;;0.50;0.43;;;27.00;49.10;;;;;;5074395;28;20172;-70
2023/06/28 11:10:14;;;;;;;0.57;0.57;;;26.90;50.00;;;;;;5074019;28;20201;-69
2023/06/28 11:12:40;;;;;;;0.77;0.77;;;26.80;48.30;;;;;;5074002;28;20416;-69
2023/06/28 11:15:07;;;;;;;1.23;0.70;;;26.20;49.00;;;;;;5074204;28;20400;-70
2023/06/28 11:17:33;;;;;;;1.30;1.20;;;25.80;50.50;;;;;;5074154;28;20387;-68
2023/06/28 11:20:07;;;;;;;2.57;0.77;;;25.80;50.60;;;;;;5074424;28;20435;-68
2023/06/28 11:22:59;;;;;;;0.83;0.67;;;26.00;53.70;;;;;;5073968;28;20462;-71
2023/06/28 11:25:28;;;;;;;0.97;0.97;;;26.50;52.30;;;;;;5073939;28;20427;-72
2023/06/28 11:27:57;;;;;;;0.90;0.70;;;26.70;49.50;;;;;;5074339;28;20407;-71
2023/06/28 11:30:47;;;;;;;1.60;0.80;;;26.60;50.10;;;;;;5073783;28;20435;-72
2023/06/28 11:33:13;;;;;;;1.33;0.80;;;26.60;49.00;;;;;;5073943;28;20773;-73
2023/06/28 11:35:40;;;;;;;1.17;1.07;;;26.40;50.10;;;;;;5073920;28;20415;-73
2023/06/28 11:38:07;;;;;;;0.70;0.70;;;26.50;58.10;;;;;;5073703;28;20407;-72
2023/06/28 11:40:33;;;;;;;0.63;0.50;;;26.50;51.00;;;;;;5073739;28;20408;-74
2023/06/28 11:42:59;;;;;;;0.80;0.80;;;26.80;52.70;;;;;;5073637;28;20458;-74
2023/06/28 11:45:27;;;;;;;0.57;0.57;;;26.90;49.50;;;;;;5073734;28;20407;-72
2023/06/28 11:47:53;;;;;;;6.60;0.73;;;26.60;52.10;;;;;;5074297;28;20563;-73
2023/06/28 11:50:19;;;;;;;1.30;0.70;;;26.10;52.30;;;;;;5073355;28;20443;-73
2023/06/28 11:52:48;;;;;;;0.70;0.70;;;25.70;52.70;;;;;;5073691;28;20173;-73
2023/06/28 11:55:15;;;;;;;0.63;0.63;;;25.60;53.30;;;;;;5073583;28;20393;-73
2023/06/28 11:57:45;;;;;;;1.63;0.90;;;25.50;53.10;;;;;;5073762;28;20414;-71
2023/06/28 12:00:14;;;;;;;1.53;1.47;;;25.10;53.90;;;;;;5073377;28;20957;-73
2023/06/28 12:02:49;;;;;;;0.77;0.67;;;24.70;55.50;;;;;;5073181;28;20415;-73
2023/06/28 12:05:20;;;;;;;0.50;0.50;;;24.20;55.70;;;;;;5073837;28;20755;-73
2023/06/28 12:07:46;;;;;;;0.67;0.67;;;24.00;55.50;;;;;;5073708;28;20407;-72
2023/06/28 12:10:13;;;;;;;2.10;1.07;;;23.60;56.30;;;;;;5073243;28;20424;-72
2023/06/28 12:12:38;;;;;;;0.67;0.63;;;23.40;56.20;;;;;;5072413;28;20796;-71
2023/06/28 12:15:05;;;;;;;0.70;0.60;;;23.50;58.20;;;;;;5073443;28;20411;-72
2023/06/28 12:17:38;;;;;;;0.60;0.60;;;23.70;56.00;;;;;;5073384;28;20175;-74
2023/06/28 12:20:05;;;;;;;0.90;0.90;;;24.10;56.60;;;;;;5073371;28;20443;-71
2023/06/28 12:22:41;;;;;;;0.77;0.77;;;24.10;56.50;;;;;;5072986;28;20784;-74
2023/06/28 12:25:07;;;;;;;1.47;0.73;;;24.30;58.00;;;;;;5073311;28;20382;-74
2023/06/28 12:27:32;;;;;;;0.73;0.57;;;24.50;56.80;;;;;;5073344;28;20458;-73
2023/06/28 12:29:58;;;;;;;0.60;0.60;;;24.70;57.00;;;;;;5073209;28;20424;-73
2023/06/28 12:32:25;;;;;;;0.60;0.60;;;24.60;55.10;;;;;;5073059;28;20248;-72
2023/06/28 12:34:51;;;;;;;1.07;1.07;;;24.40;55.50;;;;;;5073385;28;20182;-72
2023/06/28 12:37:17;;;;;;;1.20;0.90;;;24.20;55.90;;;;;;5073243;28;20379;-73
2023/06/28 12:39:43;;;;;;;0.73;0.73;;;24.10;57.30;;;;;;5073226;28;20464;-71
2023/06/28 12:42:10;;;;;;;1.17;1.10;;;24.00;56.70;;;;;;5072944;28;20404;-72
2023/06/28 12:44:54;;;;;;;0.80;0.80;;;24.10;56.40;;;;;;5072916;28;20541;-72